createdAt,value
2022-10-22T00:01:42.616Z,4.85
2022-10-22T00:04:12.331Z,4.47
2022-10-22T00:06:43.746Z,4.97
2022-10-22T00:09:15.021Z,4.70
2022-10-22T00:11:45.007Z,4.60
2022-10-22T00:14:15.713Z,4.77
2022-10-22T00:16:45.213Z,4.20
2022-10-22T00:19:15.560Z,4.27
2022-10-22T00:21:45.640Z,5.10
2022-10-22T00:24:15.637Z,4.73
2022-10-22T00:26:45.486Z,4.63
2022-10-22T00:29:15.095Z,4.33
2022-10-22T00:31:46.661Z,4.90
2022-10-22T00:34:19.943Z,6.35
2022-10-22T00:36:50.720Z,4.37
2022-10-22T00:39:23.542Z,4.78
2022-10-22T00:41:55.173Z,4.80
2022-10-22T00:45:00.465Z,5.28
2022-10-22T00:47:45.186Z,5.10
2022-10-22T00:50:17.820Z,4.70
2022-10-22T00:52:48.549Z,4.33
2022-10-22T00:55:20.475Z,5.10
2022-10-22T00:57:50.983Z,4.20
2022-10-22T01:00:20.594Z,4.80
2022-10-22T01:02:52.392Z,5.17
2022-10-22T01:05:22.070Z,5.00
2022-10-22T01:07:54.248Z,4.97
2022-10-22T01:11:00.986Z,6.30
2022-10-22T01:13:45.735Z,5.20
2022-10-22T01:16:30.109Z,6.10
2022-10-22T01:19:38.172Z,5.40
2022-10-22T01:22:16.414Z,4.77
2022-10-22T01:25:14.882Z,5.40
2022-10-22T01:27:59.245Z,5.27
2022-10-22T01:30:29.167Z,5.33
2022-10-22T01:33:01.720Z,6.13
2022-10-22T01:35:34.607Z,5.43
2022-10-22T01:38:07.584Z,5.90
2022-10-22T01:40:38.539Z,5.37
2022-10-22T01:43:11.860Z,7.10
2022-10-22T01:45:45.092Z,5.93
2022-10-22T01:48:34.395Z,5.97
2022-10-22T01:51:19.226Z,6.17
2022-10-22T01:54:17.861Z,6.27
2022-10-22T01:56:53.377Z,6.33
2022-10-22T01:59:47.281Z,6.90
2022-10-22T02:02:36.612Z,6.63
2022-10-22T02:05:10.006Z,7.07
2022-10-22T02:07:51.885Z,6.10
2022-10-22T02:10:23.205Z,5.67
2022-10-22T02:12:56.397Z,6.03
2022-10-22T02:15:28.437Z,6.03
2022-10-22T02:18:01.633Z,7.23
2022-10-22T02:20:34.765Z,5.27
2022-10-22T02:23:06.629Z,6.03
2022-10-22T02:25:39.484Z,6.77
2022-10-22T02:28:30.010Z,6.87
2022-10-22T02:31:05.669Z,6.87
2022-10-22T02:33:38.465Z,6.30
2022-10-22T02:36:09.086Z,6.33
2022-10-22T02:38:40.252Z,6.83
2022-10-22T02:41:10.370Z,6.72
2022-10-22T02:43:46.075Z,9.93
2022-10-22T02:46:15.786Z,6.77
2022-10-22T02:48:45.651Z,9.33
2022-10-22T02:51:15.573Z,8.43
2022-10-22T02:53:45.339Z,8.17
2022-10-22T02:56:14.937Z,10.00
2022-10-22T02:58:44.711Z,6.53
2022-10-22T03:01:16.149Z,7.60
2022-10-22T03:03:45.495Z,6.97
2022-10-22T03:06:15.103Z,6.87
2022-10-22T03:08:45.250Z,8.40
2022-10-22T03:11:15.233Z,7.75
2022-10-22T03:13:45.120Z,7.67
2022-10-22T03:16:14.790Z,7.23
2022-10-22T03:18:44.724Z,8.00
2022-10-22T03:21:29.116Z,7.30
2022-10-22T03:24:00.643Z,8.83
2022-10-22T03:26:30.551Z,7.92
2022-10-22T03:29:01.040Z,6.97
2022-10-22T03:31:31.148Z,7.58
2022-10-22T03:34:01.173Z,9.03
2022-10-22T03:36:31.887Z,8.83
2022-10-22T03:39:03.214Z,8.33
2022-10-22T03:41:33.754Z,9.13
2022-10-22T03:44:05.290Z,6.90
2022-10-22T03:46:35.081Z,8.90
2022-10-22T03:49:05.038Z,7.40
2022-10-22T03:51:35.885Z,8.80
2022-10-22T03:56:34.901Z,6.47
2022-10-22T03:59:04.748Z,7.53
2022-10-22T04:01:35.280Z,8.57
2022-10-22T04:04:06.235Z,7.80
2022-10-22T04:06:36.020Z,7.07
2022-10-22T04:09:06.445Z,6.50
2022-10-22T04:11:36.201Z,8.67
2022-10-22T04:14:06.858Z,7.70
2022-10-22T04:16:36.930Z,8.03
2022-10-22T04:19:07.027Z,8.53
2022-10-22T04:21:36.949Z,8.33
2022-10-22T04:24:07.079Z,7.53
2022-10-22T04:26:37.477Z,6.25
2022-10-22T04:29:11.920Z,6.63
2022-10-22T04:31:40.725Z,6.50
2022-10-22T04:34:10.549Z,6.53
2022-10-22T04:36:40.340Z,6.77
2022-10-22T04:39:09.829Z,7.07
2022-10-22T04:41:40.638Z,7.40
2022-10-22T04:44:13.642Z,9.87
2022-10-22T04:46:41.674Z,8.43
2022-10-22T04:49:11.377Z,9.07
2022-10-22T04:51:41.229Z,9.60
2022-10-22T04:54:11.427Z,8.67
2022-10-22T04:56:41.592Z,8.50
2022-10-22T04:59:15.750Z,11.13
2022-10-22T05:01:46.369Z,9.63
2022-10-22T05:04:19.635Z,10.15
2022-10-22T05:06:49.503Z,11.00
2022-10-22T05:09:21.898Z,9.67
2022-10-22T05:11:53.644Z,9.10
2022-10-22T05:14:27.424Z,9.40
2022-10-22T05:16:57.210Z,9.37
2022-10-22T05:19:29.619Z,9.77
2022-10-22T05:22:02.258Z,8.83
2022-10-22T05:24:33.931Z,9.40
2022-10-22T05:27:03.727Z,7.50
2022-10-22T05:29:34.468Z,7.30
2022-10-22T05:32:04.021Z,8.23
2022-10-22T05:34:35.457Z,8.63
2022-10-22T05:37:05.474Z,8.23
2022-10-22T05:39:37.033Z,7.27
2022-10-22T05:42:06.789Z,7.30
2022-10-22T05:44:36.720Z,6.97
2022-10-22T05:47:06.769Z,8.47
2022-10-22T05:49:36.632Z,7.97
2022-10-22T05:52:06.907Z,7.90
2022-10-22T05:54:36.714Z,9.17
2022-10-22T05:57:07.562Z,8.07
2022-10-22T05:59:37.414Z,8.58
2022-10-22T06:02:07.077Z,8.03
2022-10-22T06:04:37.086Z,8.37
2022-10-22T06:07:06.890Z,8.77
2022-10-22T06:12:08.864Z,7.67
2022-10-22T06:14:38.635Z,8.45
2022-10-22T06:17:08.793Z,8.93
2022-10-22T06:19:38.681Z,7.80
2022-10-22T06:22:08.219Z,8.40
2022-10-22T06:24:40.482Z,8.37
2022-10-22T06:27:09.600Z,8.83
2022-10-22T06:29:39.399Z,7.53
2022-10-22T06:32:09.056Z,7.43
2022-10-22T06:34:39.137Z,7.03
2022-10-22T06:37:08.703Z,6.50
2022-10-22T06:39:38.492Z,6.23
2022-10-22T06:42:08.222Z,6.40
2022-10-22T06:44:38.000Z,6.20
2022-10-22T06:47:07.495Z,6.27
2022-10-22T06:49:37.344Z,6.37
2022-10-22T06:52:06.918Z,5.80
2022-10-22T06:54:36.855Z,6.57
2022-10-22T06:57:06.549Z,6.00
2022-10-22T06:59:36.412Z,5.20
2022-10-22T07:02:07.273Z,5.62
2022-10-22T07:04:37.815Z,5.45
2022-10-22T07:07:08.274Z,5.13
2022-10-22T07:09:39.397Z,4.87
2022-10-22T07:12:09.282Z,5.73
2022-10-22T07:14:39.349Z,7.63
2022-10-22T07:17:08.983Z,6.03
2022-10-22T07:19:38.750Z,6.23
2022-10-22T07:22:08.520Z,6.73
2022-10-22T07:24:38.440Z,7.47
2022-10-22T07:27:10.958Z,7.27
2022-10-22T07:29:39.718Z,6.50
2022-10-22T07:32:09.269Z,7.40
2022-10-22T07:34:41.742Z,7.87
2022-10-22T07:39:39.560Z,6.45
2022-10-22T07:42:09.045Z,7.10
2022-10-22T07:44:38.856Z,7.40
2022-10-22T07:47:08.529Z,6.93
2022-10-22T07:49:38.319Z,8.10
2022-10-22T07:52:08.683Z,8.23
2022-10-22T07:54:38.343Z,8.37
2022-10-22T07:57:08.124Z,8.13
2022-10-22T07:59:38.210Z,6.50
2022-10-22T08:02:08.002Z,6.87
2022-10-22T08:04:39.119Z,6.40
2022-10-22T08:07:08.982Z,5.67
2022-10-22T08:09:38.767Z,5.97
2022-10-22T08:12:08.884Z,4.83
2022-10-22T08:14:38.494Z,4.83
2022-10-22T08:17:08.464Z,5.70
2022-10-22T08:19:38.401Z,6.30
2022-10-22T08:22:08.194Z,5.60
2022-10-22T08:24:38.284Z,7.47
2022-10-22T08:27:08.258Z,6.63
2022-10-22T08:29:37.933Z,7.90
2022-10-22T08:32:07.994Z,9.03
2022-10-22T08:34:38.418Z,7.97
2022-10-22T08:37:08.553Z,8.10
2022-10-22T08:39:39.123Z,7.17
2022-10-22T08:42:32.680Z,7.27
2022-10-22T08:45:11.114Z,6.40
2022-10-22T08:47:49.917Z,7.00
2022-10-22T08:50:22.459Z,7.27
2022-10-22T08:52:55.359Z,7.10
2022-10-22T08:55:26.032Z,6.27
2022-10-22T08:58:06.354Z,7.33
2022-10-22T09:00:41.769Z,7.33
2022-10-22T09:03:41.336Z,6.63
2022-10-22T09:06:16.866Z,7.10
2022-10-22T09:08:48.440Z,7.37
2022-10-22T09:11:39.801Z,8.10
2022-10-22T09:14:12.795Z,8.00
2022-10-22T09:17:05.363Z,7.73
2022-10-22T09:19:38.211Z,8.63
2022-10-22T09:22:26.183Z,7.33
2022-10-22T09:25:01.523Z,7.25
2022-10-22T09:27:32.399Z,7.90
2022-10-22T09:30:02.340Z,7.53
2022-10-22T09:32:34.072Z,7.03
2022-10-22T09:35:04.249Z,10.40
2022-10-22T09:37:34.049Z,8.43
2022-10-22T09:40:06.640Z,8.40
2022-10-22T09:42:36.702Z,7.40
2022-10-22T09:45:07.450Z,7.70
2022-10-22T09:48:00.611Z,8.33
2022-10-22T09:50:33.263Z,8.33
2022-10-22T09:53:22.492Z,9.50
2022-10-22T09:58:25.865Z,8.57
2022-10-22T10:00:58.770Z,8.67
2022-10-22T10:03:32.033Z,9.08
2022-10-22T10:06:05.900Z,8.93
2022-10-22T10:08:35.018Z,7.97
2022-10-22T10:11:13.686Z,8.43
2022-10-22T10:14:04.385Z,8.00
2022-10-22T10:16:56.968Z,10.33
2022-10-22T10:19:38.619Z,8.37
2022-10-22T10:22:26.499Z,7.93
2022-10-22T10:25:20.987Z,8.60
2022-10-22T10:27:56.421Z,7.33
2022-10-22T10:30:26.472Z,9.70
2022-10-22T10:33:19.238Z,7.27
2022-10-22T10:35:53.705Z,8.13
2022-10-22T10:38:38.509Z,7.37
2022-10-22T10:41:26.610Z,8.37
2022-10-22T10:44:20.790Z,8.40
2022-10-22T10:47:02.298Z,7.57
2022-10-22T10:49:37.085Z,11.23
2022-10-22T10:52:18.912Z,8.50
2022-10-22T10:55:06.695Z,8.13
2022-10-22T10:58:08.491Z,7.27
2022-10-22T11:00:41.483Z,6.70
2022-10-22T11:03:36.746Z,6.53
2022-10-22T11:06:12.813Z,6.73
2022-10-22T11:08:57.513Z,6.90
2022-10-22T11:11:33.270Z,7.20
2022-10-22T11:14:27.798Z,6.87
2022-10-22T11:16:59.066Z,6.97
2022-10-22T11:19:53.706Z,6.80
2022-10-22T11:22:25.832Z,6.87
2022-10-22T11:24:55.433Z,7.10
2022-10-22T11:27:40.192Z,6.90
2022-10-22T11:30:16.033Z,6.40
2022-10-22T11:32:48.860Z,7.53
2022-10-22T11:35:25.696Z,6.13
2022-10-22T11:37:54.800Z,5.90
2022-10-22T11:40:27.759Z,5.72
2022-10-22T11:43:11.997Z,5.23
2022-10-22T11:45:43.822Z,5.43
2022-10-22T11:48:19.378Z,5.23
2022-10-22T11:50:53.778Z,5.30
2022-10-22T11:53:33.223Z,4.60
2022-10-22T11:56:10.711Z,4.73
2022-10-22T11:58:44.711Z,3.87
2022-10-22T12:01:17.664Z,4.17
2022-10-22T12:04:08.715Z,3.47
2022-10-22T12:06:54.005Z,2.92
2022-10-22T12:09:27.759Z,2.53
2022-10-22T12:12:15.493Z,2.53
2022-10-22T12:15:02.773Z,2.63
2022-10-22T12:17:32.736Z,1.93
2022-10-22T12:20:05.410Z,1.27
2022-10-22T12:22:40.304Z,1.43
2022-10-22T12:25:32.051Z,0.77
2022-10-22T12:28:01.333Z,1.90
2022-10-22T12:30:37.670Z,1.40
2022-10-22T12:33:10.148Z,0.90
2022-10-22T12:35:48.944Z,1.20
2022-10-22T12:38:25.508Z,1.10
2022-10-22T12:40:57.387Z,1.30
2022-10-22T12:43:30.248Z,1.63
2022-10-22T12:46:00.939Z,1.00
2022-10-22T12:48:35.139Z,1.97
2022-10-22T12:51:09.572Z,1.98
2022-10-22T12:53:45.451Z,1.65
2022-10-22T12:56:30.570Z,1.80
2022-10-22T12:59:06.340Z,1.77
2022-10-22T13:01:39.027Z,1.63
2022-10-22T13:04:31.044Z,2.00
2022-10-22T13:07:09.925Z,1.50
2022-10-22T13:09:48.655Z,2.70
2022-10-22T13:12:21.496Z,1.57
2022-10-22T13:14:53.447Z,2.10
2022-10-22T13:17:41.777Z,1.72
2022-10-22T13:20:16.215Z,1.92
2022-10-22T13:23:03.378Z,1.87
2022-10-22T13:25:35.713Z,1.90
2022-10-22T13:28:15.407Z,1.45
2022-10-22T13:30:58.299Z,1.50
2022-10-22T13:33:46.158Z,1.67
2022-10-22T13:36:19.111Z,1.90
2022-10-22T13:38:50.793Z,2.20
2022-10-22T13:43:54.418Z,2.15
2022-10-22T13:46:26.862Z,2.03
2022-10-22T13:48:59.464Z,1.77
2022-10-22T13:51:32.872Z,2.08
2022-10-22T13:54:03.807Z,1.87
2022-10-22T13:56:34.604Z,3.20
2022-10-22T13:59:06.289Z,2.70
2022-10-22T14:01:37.249Z,3.27
2022-10-22T14:04:10.235Z,2.87
2022-10-22T14:06:40.197Z,2.80
2022-10-22T14:09:14.089Z,3.70
2022-10-22T14:11:43.963Z,3.80
2022-10-22T14:14:15.183Z,4.20
2022-10-22T14:16:46.621Z,3.47
2022-10-22T14:19:18.810Z,2.63
2022-10-22T14:21:49.382Z,3.20
2022-10-22T14:24:18.900Z,3.80
2022-10-22T14:26:50.600Z,3.37
2022-10-22T14:29:20.405Z,3.60
2022-10-22T14:31:51.229Z,3.53
2022-10-22T14:34:21.036Z,7.08
2022-10-22T14:36:51.822Z,7.97
2022-10-22T14:39:21.787Z,4.92
2022-10-22T14:41:51.592Z,5.57
2022-10-22T14:44:21.099Z,6.03
2022-10-22T14:46:52.571Z,5.60
2022-10-22T14:49:22.437Z,5.08
2022-10-22T14:51:52.147Z,5.13
2022-10-22T14:54:23.869Z,11.63
2022-10-22T14:56:54.077Z,10.30
2022-10-22T14:59:24.681Z,8.03
2022-10-22T15:01:54.506Z,5.20
2022-10-22T15:04:27.194Z,11.10
2022-10-22T15:06:57.067Z,6.00
2022-10-22T15:09:26.881Z,4.07
2022-10-22T15:11:56.698Z,4.47
2022-10-22T15:14:26.507Z,5.27
2022-10-22T15:16:56.309Z,4.57
2022-10-22T15:19:26.282Z,4.60
2022-10-22T15:21:57.023Z,3.80
2022-10-22T15:24:26.920Z,4.47
2022-10-22T15:26:56.915Z,3.13
2022-10-22T15:29:27.023Z,3.58
2022-10-22T15:31:58.275Z,3.80
2022-10-22T15:34:35.335Z,4.25
2022-10-22T15:37:09.516Z,4.12
2022-10-22T15:39:43.051Z,4.40
2022-10-22T15:42:14.477Z,3.97
2022-10-22T15:44:44.047Z,5.10
2022-10-22T15:47:13.576Z,4.60
2022-10-22T15:49:43.376Z,4.53
2022-10-22T15:52:13.063Z,4.30
2022-10-22T15:54:43.857Z,4.17
2022-10-22T15:57:13.905Z,4.23
2022-10-22T15:59:43.801Z,4.80
2022-10-22T16:02:13.580Z,4.70
2022-10-22T16:04:43.452Z,4.47
2022-10-22T16:07:13.243Z,5.37
2022-10-22T16:09:43.102Z,4.67
2022-10-22T16:12:15.369Z,4.10
2022-10-22T16:14:47.398Z,4.75
2022-10-22T16:17:17.501Z,4.97
2022-10-22T16:19:49.514Z,5.53
2022-10-22T16:22:19.038Z,6.40
2022-10-22T16:24:48.859Z,4.60
2022-10-22T16:27:18.737Z,4.17
2022-10-22T16:29:49.465Z,5.40
2022-10-22T16:32:19.037Z,4.80
2022-10-22T16:34:51.860Z,4.67
2022-10-22T16:37:21.733Z,4.65
2022-10-22T16:39:51.547Z,4.67
2022-10-22T16:42:21.102Z,5.30
2022-10-22T16:44:50.989Z,4.97
2022-10-22T16:47:21.669Z,4.87
2022-10-22T16:49:51.480Z,5.83
2022-10-22T16:52:21.952Z,6.20
2022-10-22T16:54:51.875Z,6.37
2022-10-22T16:57:22.402Z,6.53
2022-10-22T16:59:53.983Z,5.90
2022-10-22T17:02:23.607Z,6.13
2022-10-22T17:04:53.427Z,6.63
2022-10-22T17:07:23.975Z,7.43
2022-10-22T17:09:54.005Z,7.25
2022-10-22T17:12:27.606Z,5.50
2022-10-22T17:14:58.478Z,6.03
2022-10-22T17:17:28.477Z,5.67
2022-10-22T17:19:59.156Z,6.12
2022-10-22T17:22:29.604Z,4.87
2022-10-22T17:25:19.415Z,5.27
2022-10-22T17:27:49.385Z,4.80
2022-10-22T17:30:24.823Z,3.83
2022-10-22T17:32:52.966Z,5.47
2022-10-22T17:35:22.918Z,4.25
2022-10-22T17:37:53.835Z,4.33
2022-10-22T17:40:23.693Z,4.25
2022-10-22T17:42:54.916Z,4.40
2022-10-22T17:45:24.456Z,4.60
2022-10-22T17:47:55.372Z,4.30
2022-10-22T17:50:24.892Z,4.28
2022-10-22T17:52:55.753Z,3.97
2022-10-22T17:55:25.329Z,4.10
2022-10-22T17:57:55.153Z,5.23
2022-10-22T18:00:24.973Z,4.53
2022-10-22T18:02:57.616Z,4.53
2022-10-22T18:05:27.505Z,5.20
2022-10-22T18:07:58.553Z,4.87
2022-10-22T18:12:57.962Z,5.45
2022-10-22T18:15:27.778Z,5.97
2022-10-22T18:17:57.584Z,5.13
2022-10-22T18:20:27.464Z,8.70
2022-10-22T18:22:57.261Z,5.43
2022-10-22T18:25:29.113Z,7.60
2022-10-22T18:27:59.824Z,7.07
2022-10-22T18:30:30.806Z,5.50
2022-10-22T18:33:00.318Z,6.73
2022-10-22T18:35:32.828Z,6.77
2022-10-22T18:38:02.395Z,6.60
2022-10-22T18:40:33.263Z,6.40
2022-10-22T18:43:03.551Z,6.30
2022-10-22T18:45:34.570Z,5.00
2022-10-22T18:48:05.261Z,5.72
2022-10-22T18:53:03.822Z,6.03
2022-10-22T18:55:34.765Z,6.57
2022-10-22T18:58:05.596Z,5.42
2022-10-22T19:00:38.928Z,5.60
2022-10-22T19:03:08.812Z,5.53
2022-10-22T19:05:54.307Z,5.93
2022-10-22T19:08:25.146Z,4.87
2022-10-22T19:10:55.861Z,6.33
2022-10-22T19:13:25.794Z,6.00
2022-10-22T19:15:55.758Z,7.80
2022-10-22T19:18:25.572Z,8.07
2022-10-22T19:21:00.342Z,8.23
2022-10-22T19:23:31.696Z,6.85
2022-10-22T19:26:07.158Z,6.33
2022-10-22T19:28:37.714Z,5.97
2022-10-22T19:31:15.820Z,6.53
2022-10-22T19:33:46.261Z,6.60
2022-10-22T19:36:17.982Z,6.87
2022-10-22T19:38:49.719Z,5.63
2022-10-22T19:41:21.740Z,5.90
2022-10-22T19:43:53.401Z,6.07
2022-10-22T19:46:24.147Z,5.73
2022-10-22T19:48:56.533Z,6.10
2022-10-22T19:51:37.434Z,5.70
2022-10-22T19:54:09.587Z,5.85
2022-10-22T19:56:41.472Z,5.73
2022-10-22T19:59:11.362Z,6.48
2022-10-22T20:01:41.747Z,6.43
2022-10-22T20:04:16.737Z,5.72
2022-10-22T20:06:46.672Z,4.90
2022-10-22T20:09:16.573Z,5.40
2022-10-22T20:11:46.844Z,6.17
2022-10-22T20:14:16.444Z,6.70
2022-10-22T20:16:46.425Z,6.03
2022-10-22T20:19:19.200Z,6.43
2022-10-22T20:21:50.559Z,5.58
2022-10-22T20:24:20.500Z,5.62
2022-10-22T20:26:50.294Z,5.07
2022-10-22T20:29:20.105Z,4.90
2022-10-22T20:31:50.447Z,4.85
2022-10-22T20:34:20.190Z,5.57
2022-10-22T20:36:50.014Z,5.20
2022-10-22T20:39:19.735Z,5.67
2022-10-22T20:41:51.551Z,6.07
2022-10-22T20:44:21.050Z,5.17
2022-10-22T20:46:53.020Z,6.13
2022-10-22T20:49:24.488Z,4.77
2022-10-22T20:51:56.632Z,5.05
2022-10-22T20:54:26.932Z,5.50
2022-10-22T20:56:58.829Z,5.40
2022-10-22T20:59:30.359Z,6.03
2022-10-22T21:02:02.057Z,5.63
2022-10-22T21:04:31.873Z,5.10
2022-10-22T21:07:01.681Z,4.17
2022-10-22T21:09:31.670Z,4.07
2022-10-22T21:12:03.557Z,5.00
2022-10-22T21:14:33.912Z,4.43
2022-10-22T21:17:04.084Z,4.65
2022-10-22T21:19:33.869Z,4.40
2022-10-22T21:22:03.773Z,4.43
2022-10-22T21:24:33.569Z,4.77
2022-10-22T21:27:04.057Z,4.50
2022-10-22T21:29:33.869Z,3.37
2022-10-22T21:32:03.749Z,5.37
2022-10-22T21:34:38.138Z,4.23
2022-10-22T21:37:08.119Z,3.90
2022-10-22T21:39:41.276Z,4.05
2022-10-22T21:42:09.486Z,4.17
2022-10-22T21:44:39.293Z,4.20
2022-10-22T21:47:09.170Z,4.13
2022-10-22T21:49:39.239Z,4.17
2022-10-22T21:52:10.208Z,3.90
2022-10-22T21:54:40.497Z,4.03
2022-10-22T21:57:11.197Z,3.93
2022-10-22T21:59:41.194Z,3.80
2022-10-22T22:02:11.027Z,4.47
2022-10-22T22:04:41.198Z,5.23
2022-10-22T22:07:13.764Z,5.05
2022-10-22T22:09:43.900Z,5.05
2022-10-22T22:12:13.621Z,4.93
2022-10-22T22:14:44.576Z,3.97
2022-10-22T22:17:18.564Z,4.42
2022-10-22T22:19:48.439Z,3.83
2022-10-22T22:22:18.226Z,4.33
2022-10-22T22:24:48.508Z,4.30
2022-10-22T22:27:18.143Z,3.77
2022-10-22T22:29:47.951Z,4.47
2022-10-22T22:32:18.584Z,3.60
2022-10-22T22:34:48.498Z,3.22
2022-10-22T22:37:18.260Z,3.80
2022-10-22T22:39:48.054Z,4.17
2022-10-22T22:42:17.803Z,3.63
2022-10-22T22:44:47.590Z,3.87
2022-10-22T22:47:17.387Z,4.07
2022-10-22T22:49:47.183Z,4.43
2022-10-22T22:52:16.920Z,4.23
2022-10-22T22:54:51.405Z,4.27
2022-10-22T22:57:20.911Z,3.37
2022-10-22T22:59:53.985Z,3.23
2022-10-22T23:02:23.829Z,4.80
2022-10-22T23:04:55.647Z,3.77
2022-10-22T23:07:25.542Z,3.00
2022-10-22T23:09:55.359Z,3.53
2022-10-22T23:12:24.942Z,4.10
2022-10-22T23:14:54.751Z,4.00
2022-10-22T23:17:24.414Z,4.23
2022-10-22T23:19:54.236Z,4.80
2022-10-22T23:22:23.834Z,5.40
2022-10-22T23:24:55.592Z,4.37
2022-10-22T23:27:25.469Z,5.00
2022-10-22T23:29:55.635Z,4.78
2022-10-22T23:32:27.289Z,5.47
2022-10-22T23:34:57.752Z,5.43
2022-10-22T23:37:27.844Z,4.05
2022-10-22T23:39:57.791Z,4.03
2022-10-22T23:42:27.709Z,3.40
2022-10-22T23:44:57.552Z,3.30
2022-10-22T23:47:27.359Z,3.30
2022-10-22T23:49:57.163Z,4.40
2022-10-22T23:52:26.974Z,3.03
2022-10-22T23:54:56.774Z,3.17
2022-10-22T23:57:26.678Z,3.63
2022-10-22T23:59:56.480Z,4.17
